Time;durP1;ratioP1;P1;durP2;ratioP2;P2;SDS_P1;SDS_P2;PMS_P1;PMS_P2;Temp;Humidity;BMP_temperature;BMP_pressure;BME280_temperature;BME280_humidity;BME280_pressure;Samples;Min_cycle;Max_cycle;Signal;HPM_P1;HPM_P2
2023/05/18 00:02:22;;;;;;;1.13;0.50;;;7.90;99.90;;;;;;5072071;28;20119;-83
2023/05/18 00:04:48;;;;;;;1.52;0.57;;;8.30;99.90;;;;;;5072917;28;20045;-84
2023/05/18 00:07:14;;;;;;;2.55;0.70;;;7.80;99.90;;;;;;5072999;28;20373;-83
2023/05/18 00:09:40;;;;;;;2.17;0.52;;;7.70;99.90;;;;;;5072588;28;20044;-83
2023/05/18 00:12:07;;;;;;;2.10;0.60;;;8.00;99.90;;;;;;5054535;28;20131;-83
2023/05/18 00:14:33;;;;;;;3.70;0.70;;;7.60;99.90;;;;;;5054924;28;20519;-83
2023/05/18 00:17:00;;;;;;;3.58;0.70;;;8.30;99.90;;;;;;5073076;28;20076;-83
2023/05/18 00:19:28;;;;;;;1.73;0.73;;;7.60;99.90;;;;;;5072973;28;20117;-83
2023/05/18 00:21:57;;;;;;;3.28;0.50;;;7.60;99.90;;;;;;5072164;28;20074;-83
2023/05/18 00:24:23;;;;;;;1.45;0.70;;;7.60;99.90;;;;;;5072749;28;20515;-83
2023/05/18 00:26:49;;;;;;;2.40;0.80;;;7.90;99.90;;;;;;5054772;28;20041;-83
2023/05/18 00:29:15;;;;;;;1.55;0.50;;;8.00;99.90;;;;;;5038074;28;20036;-83
2023/05/18 00:31:41;;;;;;;2.80;0.60;;;8.20;99.90;;;;;;5072474;28;20067;-84
2023/05/18 00:34:11;;;;;;;1.25;0.70;;;8.10;99.90;;;;;;5072281;28;20040;-83
2023/05/18 00:36:37;;;;;;;3.95;0.60;;;7.70;99.90;;;;;;5072480;28;20519;-83
2023/05/18 00:39:04;;;;;;;0.77;0.50;;;8.20;99.90;;;;;;5080602;28;20063;-84
2023/05/18 00:41:30;;;;;;;1.20;0.73;;;7.90;99.90;;;;;;5090851;28;20040;-84
2023/05/18 00:43:56;;;;;;;1.75;0.70;;;8.10;99.90;;;;;;5090069;28;20054;-84
2023/05/18 00:46:24;;;;;;;1.70;0.70;;;7.70;99.90;;;;;;5092836;28;20047;-83
2023/05/18 00:48:51;;;;;;;2.00;0.63;;;7.70;99.90;;;;;;5083245;28;20055;-84
2023/05/18 00:51:24;;;;;;;2.40;0.65;;;7.70;99.90;;;;;;5072482;28;20048;-83
2023/05/18 00:53:52;;;;;;;1.63;0.50;;;7.90;99.90;;;;;;5087329;28;20044;-83
2023/05/18 00:56:18;;;;;;;5.40;0.85;;;7.70;99.90;;;;;;5092012;28;20186;-84
2023/05/18 00:58:44;;;;;;;4.05;0.80;;;8.10;99.90;;;;;;5074596;28;20048;-84
2023/05/18 01:01:10;;;;;;;1.63;0.57;;;7.70;99.90;;;;;;5092901;28;20044;-84
2023/05/18 01:03:37;;;;;;;2.72;0.70;;;8.00;99.90;;;;;;5090931;28;20123;-84
2023/05/18 01:06:06;;;;;;;1.63;0.60;;;8.00;99.90;;;;;;5091949;28;20044;-84
2023/05/18 01:08:33;;;;;;;2.55;0.70;;;7.80;99.90;;;;;;5075976;28;20400;-84
2023/05/18 01:11:28;;;;;;;2.65;0.80;;;8.10;99.90;;;;;;5072284;28;20043;-84
2023/05/18 01:14:00;;;;;;;2.47;0.80;;;7.70;99.90;;;;;;4972641;28;20061;-84
2023/05/18 01:16:33;;;;;;;1.58;0.60;;;7.90;99.90;;;;;;4976320;28;20059;-83
2023/05/18 01:19:39;;;;;;;2.63;0.70;;;8.00;99.90;;;;;;4975311;28;20058;-84
2023/05/18 01:22:28;;;;;;;1.97;0.70;;;7.70;99.90;;;;;;4916636;29;20052;-84
2023/05/18 01:25:03;;;;;;;1.83;0.52;;;7.70;99.90;;;;;;4917057;29;20076;-83
2023/05/18 01:27:36;;;;;;;1.67;0.80;;;8.20;99.90;;;;;;4917534;29;20104;-84
2023/05/18 01:30:03;;;;;;;1.52;0.60;;;8.00;99.90;;;;;;4917007;29;20118;-83
2023/05/18 01:32:29;;;;;;;1.45;0.80;;;7.70;99.90;;;;;;4917598;29;20596;-84
2023/05/18 01:34:55;;;;;;;3.70;0.63;;;7.70;99.90;;;;;;4917533;29;20131;-84
2023/05/18 01:37:21;;;;;;;2.22;0.60;;;8.30;99.90;;;;;;4900803;29;20074;-84
2023/05/18 01:39:46;;;;;;;4.22;0.60;;;8.50;99.90;;;;;;4901536;29;20052;-84
2023/05/18 01:42:18;;;;;;;4.20;0.77;;;7.80;99.90;;;;;;4917481;29;20502;-84
2023/05/18 01:44:50;;;;;;;1.85;0.93;;;7.70;99.90;;;;;;4916959;29;20060;-84
2023/05/18 01:47:17;;;;;;;1.15;0.52;;;7.80;99.90;;;;;;4916910;29;20127;-84
2023/05/18 01:49:55;;;;;;;3.83;0.60;;;7.80;99.90;;;;;;4904430;28;20462;-84
2023/05/18 01:52:43;;;;;;;2.15;0.63;;;7.80;99.90;;;;;;4993787;28;20096;-84
2023/05/18 01:55:10;;;;;;;2.38;0.80;;;7.80;99.90;;;;;;4994069;28;20057;-83
2023/05/18 01:57:38;;;;;;;1.42;1.08;;;7.90;99.90;;;;;;4993513;28;20046;-83
2023/05/18 02:00:06;;;;;;;1.83;0.80;;;7.80;99.90;;;;;;5069001;28;20039;-84
2023/05/18 02:02:32;;;;;;;1.85;0.90;;;7.80;99.90;;;;;;5077031;28;20039;-83
2023/05/18 02:04:58;;;;;;;5.28;0.60;;;8.50;99.90;;;;;;5079720;28;20531;-83
2023/05/18 02:07:24;;;;;;;6.95;0.68;;;8.60;99.90;;;;;;5057493;28;20056;-84
2023/05/18 02:09:50;;;;;;;3.22;0.70;;;8.50;99.90;;;;;;5074940;28;20056;-83
2023/05/18 02:12:15;;;;;;;3.28;1.02;;;8.30;99.90;;;;;;5075516;28;20048;-84
2023/05/18 02:14:41;;;;;;;2.13;0.60;;;8.00;99.90;;;;;;5076208;28;20070;-84
2023/05/18 02:17:07;;;;;;;4.20;0.70;;;8.00;99.90;;;;;;5040236;28;20056;-84
2023/05/18 02:19:36;;;;;;;1.83;0.80;;;8.00;99.90;;;;;;5094929;28;20126;-84
2023/05/18 02:22:05;;;;;;;0.95;0.68;;;7.70;99.90;;;;;;5077094;28;20040;-83
2023/05/18 02:24:31;;;;;;;2.80;0.75;;;7.90;99.90;;;;;;5093638;28;20052;-84
2023/05/18 02:26:57;;;;;;;5.15;0.77;;;8.30;99.90;;;;;;5094425;28;20068;-84
2023/05/18 02:29:23;;;;;;;5.40;0.80;;;7.80;99.90;;;;;;5077226;28;20090;-84
2023/05/18 02:31:48;;;;;;;2.67;0.80;;;8.40;99.90;;;;;;5077022;28;20048;-84
2023/05/18 02:34:15;;;;;;;3.78;1.08;;;7.80;99.90;;;;;;5093954;28;20389;-84
2023/05/18 02:36:42;;;;;;;2.65;0.73;;;8.50;99.90;;;;;;5079383;28;20042;-84
2023/05/18 02:39:09;;;;;;;2.03;0.63;;;8.20;99.90;;;;;;5076537;28;20065;-84
2023/05/18 02:41:36;;;;;;;2.55;0.60;;;8.10;99.90;;;;;;5094964;28;20440;-83
2023/05/18 02:44:02;;;;;;;2.00;0.63;;;7.80;99.90;;;;;;5094842;28;20051;-84
2023/05/18 02:46:28;;;;;;;3.90;0.68;;;7.80;99.90;;;;;;5074823;28;20036;-83
2023/05/18 02:48:54;;;;;;;2.88;1.15;;;7.90;99.90;;;;;;5076666;28;20553;-83
2023/05/18 02:51:23;;;;;;;3.38;0.80;;;8.60;99.90;;;;;;5093779;28;20039;-83
2023/05/18 02:53:49;;;;;;;4.68;0.75;;;8.00;99.90;;;;;;5094429;28;20044;-83
2023/05/18 02:56:16;;;;;;;4.95;0.90;;;8.10;99.90;;;;;;5089743;28;20051;-83
2023/05/18 02:58:42;;;;;;;2.75;0.57;;;8.70;99.90;;;;;;5093896;28;20431;-84
2023/05/18 03:01:11;;;;;;;3.03;0.73;;;8.60;99.90;;;;;;5094129;28;20048;-84
2023/05/18 03:03:37;;;;;;;4.63;0.70;;;7.90;99.90;;;;;;5090725;28;20057;-84
2023/05/18 03:06:03;;;;;;;1.48;0.77;;;8.00;99.90;;;;;;5075214;28;20063;-84
2023/05/18 03:08:30;;;;;;;4.03;0.80;;;7.80;99.90;;;;;;5073916;28;20045;-84
2023/05/18 03:10:56;;;;;;;2.10;0.50;;;8.20;99.90;;;;;;5087675;28;20059;-84
2023/05/18 03:13:22;;;;;;;3.38;0.75;;;8.00;99.90;;;;;;5094090;28;20048;-83
2023/05/18 03:15:49;;;;;;;2.10;0.65;;;7.80;99.90;;;;;;5094180;28;20369;-83
2023/05/18 03:18:15;;;;;;;1.20;0.65;;;8.50;99.90;;;;;;5091926;28;20051;-83
2023/05/18 03:20:41;;;;;;;1.63;0.73;;;8.10;99.90;;;;;;5076231;28;20131;-83
2023/05/18 03:23:08;;;;;;;2.63;0.82;;;8.60;99.90;;;;;;5093852;28;20040;-84
2023/05/18 03:25:36;;;;;;;4.18;0.88;;;7.80;99.90;;;;;;5081332;28;20076;-84
2023/05/18 03:28:03;;;;;;;1.13;0.98;;;8.00;99.90;;;;;;5074778;28;20032;-83
2023/05/18 03:30:31;;;;;;;2.00;0.55;;;7.80;99.90;;;;;;5073723;28;20115;-83
2023/05/18 03:32:58;;;;;;;1.88;0.60;;;8.30;99.90;;;;;;5073571;28;20563;-84
2023/05/18 03:35:24;;;;;;;3.58;0.73;;;7.80;99.90;;;;;;5073409;28;20101;-85
2023/05/18 03:37:49;;;;;;;2.38;0.77;;;8.60;99.90;;;;;;5053824;28;20063;-84
2023/05/18 03:40:15;;;;;;;3.35;0.70;;;8.00;99.90;;;;;;5089460;28;20040;-84
2023/05/18 03:42:42;;;;;;;0.80;0.50;;;7.90;99.90;;;;;;5092064;28;20119;-84
2023/05/18 03:45:09;;;;;;;6.50;0.63;;;7.90;99.90;;;;;;5093783;28;20036;-84
2023/05/18 03:47:35;;;;;;;1.75;0.70;;;7.90;99.90;;;;;;5093612;28;20051;-84
2023/05/18 03:50:01;;;;;;;1.17;0.47;;;8.50;99.90;;;;;;5091667;28;20048;-84
2023/05/18 03:52:28;;;;;;;1.10;0.50;;;7.90;99.90;;;;;;5090483;28;20071;-83
2023/05/18 03:54:55;;;;;;;1.45;0.50;;;8.30;99.90;;;;;;5073294;28;20068;-84
2023/05/18 03:57:21;;;;;;;2.38;0.70;;;8.70;99.90;;;;;;5073428;28;20095;-83
2023/05/18 03:59:47;;;;;;;2.20;0.60;;;8.50;99.90;;;;;;5075582;28;20060;-84
2023/05/18 04:02:12;;;;;;;1.50;0.60;;;8.00;99.90;;;;;;5058234;28;20058;-84
2023/05/18 04:04:44;;;;;;;2.67;0.60;;;8.00;99.90;;;;;;5058512;28;20044;-84
2023/05/18 04:07:11;;;;;;;1.13;0.50;;;8.20;99.90;;;;;;5092354;28;20044;-84
2023/05/18 04:09:38;;;;;;;1.10;0.60;;;8.00;99.90;;;;;;5093346;28;20040;-84
2023/05/18 04:12:04;;;;;;;4.43;1.00;;;8.10;99.90;;;;;;5077113;28;20035;-84
2023/05/18 04:14:31;;;;;;;1.75;0.82;;;8.10;99.90;;;;;;5072906;28;20090;-83
2023/05/18 04:17:03;;;;;;;1.17;0.55;;;8.00;99.90;;;;;;5072933;28;20086;-84
2023/05/18 04:19:31;;;;;;;1.38;0.60;;;8.70;99.90;;;;;;5073041;28;20040;-84
2023/05/18 04:21:57;;;;;;;1.65;0.57;;;8.20;99.90;;;;;;5039490;28;20036;-84
2023/05/18 04:24:23;;;;;;;1.45;0.70;;;8.10;99.90;;;;;;5072892;28;20047;-84
2023/05/18 04:26:49;;;;;;;1.90;0.70;;;8.20;99.90;;;;;;5054970;28;20101;-84
2023/05/18 04:29:16;;;;;;;1.98;0.60;;;8.20;99.90;;;;;;5072955;28;20400;-84
2023/05/18 04:31:43;;;;;;;4.38;0.75;;;8.90;99.90;;;;;;5082557;28;20398;-84
2023/05/18 04:34:09;;;;;;;4.95;0.82;;;8.80;99.90;;;;;;5074474;28;20487;-83
2023/05/18 04:36:38;;;;;;;2.05;0.60;;;8.70;99.90;;;;;;5092762;28;20040;-84
2023/05/18 04:39:06;;;;;;;1.58;0.60;;;8.30;99.90;;;;;;5071203;28;20068;-83
2023/05/18 04:41:33;;;;;;;2.67;0.60;;;8.40;99.90;;;;;;5072563;28;20128;-84
2023/05/18 04:43:59;;;;;;;2.65;0.70;;;8.40;99.90;;;;;;5069034;28;20044;-84
2023/05/18 04:46:26;;;;;;;2.88;0.80;;;8.80;99.90;;;;;;5071998;28;20131;-84
2023/05/18 04:48:56;;;;;;;2.78;0.70;;;8.40;99.90;;;;;;5069154;28;20037;-84
2023/05/18 04:51:23;;;;;;;0.70;0.50;;;8.40;99.90;;;;;;5071461;28;20051;-84
2023/05/18 04:53:49;;;;;;;3.47;0.50;;;8.60;99.90;;;;;;5054261;28;20045;-84
2023/05/18 04:56:19;;;;;;;2.47;0.73;;;8.40;99.90;;;;;;5072538;28;20056;-83
2023/05/18 04:58:48;;;;;;;3.78;1.05;;;8.80;99.90;;;;;;5072313;28;20602;-83
2023/05/18 05:01:15;;;;;;;1.70;0.73;;;8.90;99.90;;;;;;5054719;28;20062;-84
2023/05/18 05:03:41;;;;;;;2.35;0.55;;;8.50;99.90;;;;;;5070115;28;20048;-84
2023/05/18 05:06:07;;;;;;;2.63;0.98;;;8.90;99.90;;;;;;5070610;28;20044;-84
2023/05/18 05:08:33;;;;;;;1.10;0.55;;;8.50;99.90;;;;;;5071408;28;20102;-84
2023/05/18 05:11:00;;;;;;;3.38;0.90;;;8.70;99.90;;;;;;5072603;28;20040;-84
2023/05/18 05:13:26;;;;;;;1.95;0.82;;;8.60;99.90;;;;;;5072379;28;20048;-85
2023/05/18 05:15:51;;;;;;;2.60;0.70;;;8.60;99.90;;;;;;5070222;28;20048;-84
2023/05/18 05:18:17;;;;;;;3.45;0.60;;;8.60;99.90;;;;;;5069906;28;20131;-83
2023/05/18 05:20:43;;;;;;;2.92;0.77;;;8.60;99.90;;;;;;5071996;28;20045;-84
2023/05/18 05:23:08;;;;;;;3.58;0.65;;;9.00;99.90;;;;;;5071052;28;20051;-84
2023/05/18 05:25:34;;;;;;;1.40;0.70;;;8.70;99.90;;;;;;5069003;28;20439;-84
2023/05/18 05:28:00;;;;;;;1.50;0.60;;;8.90;99.90;;;;;;5072134;28;20442;-83
2023/05/18 05:30:26;;;;;;;1.63;0.68;;;8.90;99.90;;;;;;5071062;28;20094;-84
2023/05/18 05:32:51;;;;;;;2.38;0.60;;;8.90;99.90;;;;;;5071179;28;20056;-84
2023/05/18 05:35:17;;;;;;;1.90;0.63;;;8.90;99.90;;;;;;5071952;28;20044;-84
2023/05/18 05:37:43;;;;;;;2.50;0.70;;;9.30;99.90;;;;;;5072379;28;20488;-84
2023/05/18 05:40:09;;;;;;;2.55;0.60;;;8.80;99.90;;;;;;5074061;28;20074;-84
2023/05/18 05:42:35;;;;;;;2.22;1.73;;;8.90;99.90;;;;;;5092219;28;20480;-83
2023/05/18 05:45:01;;;;;;;2.25;0.85;;;9.10;99.90;;;;;;5092473;28;20042;-84
2023/05/18 05:47:26;;;;;;;2.88;0.70;;;9.10;99.90;;;;;;5062359;28;20041;-83
2023/05/18 05:49:52;;;;;;;2.00;0.60;;;9.10;99.90;;;;;;5054155;28;20051;-83
2023/05/18 05:52:18;;;;;;;3.05;0.50;;;9.50;99.90;;;;;;5071860;28;20047;-84
2023/05/18 05:54:43;;;;;;;4.50;0.93;;;9.50;99.90;;;;;;5071897;28;20128;-84
2023/05/18 05:57:09;;;;;;;2.03;0.60;;;9.50;99.90;;;;;;5072802;28;20044;-84
2023/05/18 05:59:35;;;;;;;3.90;0.70;;;9.40;99.90;;;;;;5071945;28;20044;-84
2023/05/18 06:02:01;;;;;;;2.92;1.25;;;9.70;99.90;;;;;;5083214;28;20430;-84
2023/05/18 06:04:27;;;;;;;1.77;0.52;;;9.50;99.90;;;;;;5077622;28;20051;-84
2023/05/18 06:06:53;;;;;;;2.55;0.60;;;9.90;99.90;;;;;;5095235;28;20085;-83
2023/05/18 06:09:18;;;;;;;3.10;0.60;;;9.70;99.90;;;;;;5093463;28;20046;-83
2023/05/18 06:11:44;;;;;;;3.03;0.60;;;9.90;99.90;;;;;;5077305;28;20066;-83
2023/05/18 06:14:10;;;;;;;2.42;0.60;;;9.90;99.90;;;;;;5094676;28;20459;-83
2023/05/18 06:16:37;;;;;;;3.30;0.70;;;9.90;99.90;;;;;;5095265;28;20044;-83
2023/05/18 06:19:02;;;;;;;2.78;1.30;;;10.00;99.90;;;;;;5092830;28;20051;-84
2023/05/18 06:21:28;;;;;;;2.17;1.33;;;10.10;99.90;;;;;;5095066;28;20048;-84
2023/05/18 06:23:55;;;;;;;3.47;0.90;;;10.00;99.90;;;;;;5093803;28;20086;-84
2023/05/18 06:26:21;;;;;;;2.20;1.08;;;10.10;99.90;;;;;;5072898;28;20060;-84
2023/05/18 06:28:47;;;;;;;2.50;0.70;;;10.10;99.90;;;;;;5095281;28;20050;-84
2023/05/18 06:31:14;;;;;;;6.35;0.80;;;10.20;99.90;;;;;;5069953;28;20076;-84
2023/05/18 06:33:39;;;;;;;2.67;0.70;;;10.10;99.90;;;;;;5076082;28;20403;-85
2023/05/18 06:36:05;;;;;;;4.15;0.80;;;10.20;99.90;;;;;;5080445;28;20050;-83
2023/05/18 06:38:31;;;;;;;3.38;0.70;;;10.20;99.90;;;;;;5074531;28;20061;-84
2023/05/18 06:40:57;;;;;;;2.78;0.85;;;10.30;99.90;;;;;;5057691;28;20047;-86
2023/05/18 06:43:25;;;;;;;3.85;0.60;;;10.30;99.90;;;;;;5087431;28;20036;-84
2023/05/18 06:45:51;;;;;;;2.70;0.65;;;10.40;99.90;;;;;;5094676;28;20090;-85
2023/05/18 06:48:17;;;;;;;0.90;0.50;;;10.40;99.90;;;;;;5088073;28;20048;-84
2023/05/18 06:50:42;;;;;;;1.65;0.50;;;10.40;99.90;;;;;;5060979;28;20121;-84
2023/05/18 06:53:08;;;;;;;3.03;0.60;;;10.40;99.90;;;;;;5094377;28;20069;-83
2023/05/18 06:55:34;;;;;;;4.95;0.60;;;10.40;99.90;;;;;;5076543;28;20123;-84
2023/05/18 06:58:01;;;;;;;1.85;0.60;;;10.50;99.90;;;;;;5077095;28;20040;-84
2023/05/18 07:00:27;;;;;;;1.85;0.55;;;10.40;99.90;;;;;;5095233;28;20525;-83
2023/05/18 07:02:52;;;;;;;3.47;0.70;;;10.40;99.90;;;;;;5090556;28;20044;-84
2023/05/18 07:05:18;;;;;;;1.80;0.52;;;10.30;99.90;;;;;;5074838;28;20508;-83
2023/05/18 07:07:44;;;;;;;1.20;0.70;;;10.20;99.90;;;;;;5074506;28;20408;-84
2023/05/18 07:10:10;;;;;;;3.20;0.80;;;10.30;99.90;;;;;;5074591;28;20392;-83
2023/05/18 07:12:36;;;;;;;4.22;1.02;;;10.30;99.90;;;;;;5082570;28;20044;-83
2023/05/18 07:15:03;;;;;;;4.10;0.70;;;10.30;99.90;;;;;;5074905;28;20036;-81
2023/05/18 07:17:28;;;;;;;3.13;0.70;;;10.40;99.90;;;;;;5056291;28;20063;-83
2023/05/18 07:19:54;;;;;;;2.42;0.63;;;10.50;99.90;;;;;;5063077;28;20039;-82
2023/05/18 07:22:20;;;;;;;2.78;0.63;;;10.50;99.90;;;;;;5092999;28;20134;-82
2023/05/18 07:24:45;;;;;;;2.75;1.60;;;10.70;99.90;;;;;;5075935;28;20105;-82
2023/05/18 07:27:11;;;;;;;6.93;0.65;;;10.60;99.90;;;;;;5086385;28;20040;-84
2023/05/18 07:29:37;;;;;;;5.28;1.08;;;10.70;99.90;;;;;;5074272;28;20048;-85
2023/05/18 07:32:03;;;;;;;3.33;0.60;;;10.70;99.90;;;;;;5057146;28;20035;-82
2023/05/18 07:34:28;;;;;;;2.38;0.90;;;10.70;99.90;;;;;;5074995;28;20044;-85
2023/05/18 07:36:54;;;;;;;3.50;0.60;;;10.90;99.90;;;;;;5073955;28;20044;-83
2023/05/18 07:39:27;;;;;;;2.75;0.70;;;10.90;99.90;;;;;;5073380;28;20060;-85
2023/05/18 07:41:53;;;;;;;3.05;0.68;;;11.00;99.90;;;;;;5084615;28;20069;-84
2023/05/18 07:44:19;;;;;;;2.30;0.70;;;11.30;99.90;;;;;;5074142;28;20138;-85
2023/05/18 07:46:44;;;;;;;3.42;0.98;;;11.40;99.90;;;;;;5093426;28;20043;-83
2023/05/18 07:49:10;;;;;;;5.90;1.02;;;11.50;99.90;;;;;;5093480;28;20122;-84
2023/05/18 07:51:36;;;;;;;2.85;0.52;;;11.50;99.90;;;;;;5092855;28;20043;-85
2023/05/18 07:54:02;;;;;;;1.75;0.75;;;11.60;99.90;;;;;;5093469;28;20043;-82
2023/05/18 07:56:28;;;;;;;2.20;0.60;;;11.60;99.90;;;;;;5091719;28;20036;-83
2023/05/18 07:58:53;;;;;;;2.00;0.60;;;11.70;99.90;;;;;;5086494;28;20416;-85
2023/05/18 08:01:20;;;;;;;4.15;0.60;;;11.80;99.90;;;;;;5073553;28;20075;-84
2023/05/18 08:03:46;;;;;;;2.17;1.00;;;12.20;99.90;;;;;;5071248;28;20127;-84
2023/05/18 08:06:12;;;;;;;7.20;0.80;;;12.20;99.90;;;;;;5091462;28;20123;-83
2023/05/18 08:08:37;;;;;;;3.35;0.73;;;12.20;99.90;;;;;;5093288;28;20052;-83
2023/05/18 08:11:04;;;;;;;2.45;0.80;;;12.50;99.90;;;;;;5075599;28;20043;-84
2023/05/18 08:13:30;;;;;;;3.42;0.70;;;12.20;99.90;;;;;;5091689;28;20048;-82
2023/05/18 08:15:55;;;;;;;2.60;0.57;;;12.40;99.90;;;;;;5092172;28;20403;-82
2023/05/18 08:18:21;;;;;;;4.22;1.10;;;12.70;99.90;;;;;;5092011;28;20403;-83
2023/05/18 08:20:48;;;;;;;1.70;0.70;;;12.80;99.90;;;;;;5092840;28;20067;-82
2023/05/18 08:23:14;;;;;;;2.90;0.70;;;12.70;99.90;;;;;;5073996;28;20089;-84
2023/05/18 08:25:40;;;;;;;1.85;0.65;;;12.70;99.90;;;;;;5092956;28;20040;-84
2023/05/18 08:28:06;;;;;;;4.82;0.80;;;12.80;99.90;;;;;;5091059;28;20122;-83
2023/05/18 08:30:32;;;;;;;3.90;0.68;;;12.80;99.90;;;;;;5093293;28;20114;-82
2023/05/18 08:32:58;;;;;;;3.40;0.63;;;13.00;99.90;;;;;;5093169;28;20044;-83
2023/05/18 08:35:23;;;;;;;8.63;0.90;;;13.30;99.90;;;;;;5092135;28;20044;-83
2023/05/18 08:37:49;;;;;;;2.28;0.98;;;13.20;99.90;;;;;;5088859;28;20087;-83
2023/05/18 08:40:15;;;;;;;1.73;0.80;;;13.30;99.90;;;;;;5072430;28;20049;-85
2023/05/18 08:43:02;;;;;;;4.97;0.70;;;13.60;99.90;;;;;;5072911;28;20056;-84
2023/05/18 08:45:46;;;;;;;5.82;0.95;;;13.80;99.90;;;;;;5081219;28;20036;-82
2023/05/18 08:48:14;;;;;;;1.60;0.60;;;13.90;99.90;;;;;;5091074;28;20051;-83
2023/05/18 08:50:41;;;;;;;5.53;0.68;;;13.70;99.90;;;;;;5075610;28;20040;-83
2023/05/18 08:53:09;;;;;;;4.75;0.70;;;13.70;99.90;;;;;;5072486;28;20098;-82
2023/05/18 08:55:36;;;;;;;3.72;1.25;;;13.80;99.90;;;;;;5076697;28;20048;-82
2023/05/18 08:58:06;;;;;;;3.47;0.90;;;13.50;99.90;;;;;;5092679;28;20048;-83
2023/05/18 09:00:32;;;;;;;3.20;0.70;;;13.50;99.90;;;;;;5090669;28;20373;-83
2023/05/18 09:02:58;;;;;;;4.88;0.70;;;13.50;99.60;;;;;;5092700;28;20040;-83
2023/05/18 09:05:24;;;;;;;3.55;0.98;;;13.50;99.90;;;;;;5092522;28;20078;-82
2023/05/18 09:07:51;;;;;;;4.75;0.77;;;13.80;99.90;;;;;;5090740;28;20046;-83
2023/05/18 09:10:17;;;;;;;2.13;0.70;;;13.80;99.90;;;;;;5068631;28;20041;-83
2023/05/18 09:12:45;;;;;;;4.38;0.90;;;13.90;99.90;;;;;;5072400;28;20036;-84
2023/05/18 09:15:13;;;;;;;4.38;0.90;;;14.20;99.90;;;;;;5076394;28;20035;-83
2023/05/18 09:17:38;;;;;;;5.70;1.00;;;14.50;99.90;;;;;;5091575;28;20051;-83
2023/05/18 09:20:05;;;;;;;4.05;0.52;;;14.50;99.00;;;;;;5092431;28;20044;-84
2023/05/18 09:22:32;;;;;;;2.10;0.73;;;14.80;99.90;;;;;;5090415;28;20090;-84
2023/05/18 09:24:58;;;;;;;5.43;0.90;;;14.80;99.10;;;;;;5092548;28;20051;-84
2023/05/18 09:27:23;;;;;;;2.53;0.80;;;14.60;99.40;;;;;;5090811;28;20042;-85
2023/05/18 09:29:54;;;;;;;3.85;0.70;;;14.70;99.90;;;;;;5074392;28;20484;-84
2023/05/18 09:32:21;;;;;;;7.57;1.30;;;15.10;99.90;;;;;;5091130;28;20473;-83
2023/05/18 09:34:47;;;;;;;3.28;0.80;;;15.40;99.90;;;;;;5057049;28;20048;-83
2023/05/18 09:37:20;;;;;;;4.78;0.80;;;15.50;99.90;;;;;;5077386;28;20048;-83
2023/05/18 09:40:04;;;;;;;3.50;0.80;;;16.00;99.90;;;;;;5093515;28;20044;-84
2023/05/18 09:42:38;;;;;;;3.53;0.70;;;16.20;99.40;;;;;;5077156;28;20119;-82
2023/05/18 09:45:25;;;;;;;2.88;0.70;;;16.30;98.30;;;;;;5096467;28;20051;-83
2023/05/18 09:47:51;;;;;;;2.95;0.93;;;16.80;98.30;;;;;;5096502;28;20043;-84
2023/05/18 09:50:22;;;;;;;3.97;0.80;;;16.40;97.10;;;;;;5093939;28;20483;-83
2023/05/18 09:52:48;;;;;;;2.63;0.60;;;16.80;97.00;;;;;;5075581;28;20526;-84
2023/05/18 09:55:18;;;;;;;6.88;0.80;;;16.70;97.30;;;;;;5057669;28;20053;-83
2023/05/18 09:57:50;;;;;;;2.17;0.60;;;16.80;97.10;;;;;;5075392;28;20044;-84
2023/05/18 10:00:18;;;;;;;5.10;1.35;;;16.20;96.80;;;;;;5058575;28;20048;-83
2023/05/18 10:02:50;;;;;;;5.82;1.13;;;15.70;96.20;;;;;;5075335;28;20119;-83
2023/05/18 10:05:20;;;;;;;3.58;0.90;;;15.80;97.90;;;;;;5076201;28;20101;-83
2023/05/18 10:07:47;;;;;;;2.97;0.60;;;15.30;96.70;;;;;;5075247;28;20045;-84
2023/05/18 10:10:17;;;;;;;2.05;0.70;;;15.50;96.80;;;;;;5062351;28;20040;-83
2023/05/18 10:12:43;;;;;;;4.20;0.90;;;15.40;97.90;;;;;;5073525;28;20059;-82
2023/05/18 10:15:13;;;;;;;2.58;0.65;;;15.50;97.80;;;;;;5084392;28;20048;-84
2023/05/18 10:17:40;;;;;;;4.53;0.75;;;15.40;98.90;;;;;;5095382;28;20510;-84
2023/05/18 10:20:08;;;;;;;3.05;0.77;;;15.30;97.30;;;;;;5077393;28;20047;-88
2023/05/18 10:22:36;;;;;;;3.38;0.63;;;15.20;97.30;;;;;;5095121;28;20046;-82
2023/05/18 10:28:46;;;;;;;5.35;2.45;;;15.30;98.00;;;;;;5094560;28;20057;-84
2023/05/18 10:31:14;;;;;;;4.50;0.93;;;15.30;98.20;;;;;;5092486;28;20507;-85
2023/05/18 10:33:41;;;;;;;3.67;0.68;;;15.20;97.20;;;;;;5057134;28;20098;-84
2023/05/18 10:36:09;;;;;;;5.75;0.90;;;15.00;97.10;;;;;;5077628;28;20044;-84
2023/05/18 10:38:41;;;;;;;3.78;0.60;;;14.70;97.20;;;;;;5067633;28;20067;-87
2023/05/18 10:41:10;;;;;;;5.20;0.80;;;14.90;98.20;;;;;;5075536;28;20049;-81
2023/05/18 10:43:36;;;;;;;3.45;0.68;;;14.90;99.50;;;;;;5076238;28;20444;-85
2023/05/18 10:46:06;;;;;;;4.13;0.75;;;15.00;97.90;;;;;;5074365;28;20102;-82
2023/05/18 10:48:37;;;;;;;6.07;0.80;;;14.80;98.10;;;;;;5067844;28;20549;-82
2023/05/18 10:51:05;;;;;;;2.83;0.57;;;14.70;98.60;;;;;;5056531;28;20037;-83
2023/05/18 10:53:32;;;;;;;2.03;0.50;;;15.00;99.00;;;;;;5035353;28;20065;-87
2023/05/18 10:59:41;;;;;;;2.80;0.60;;;15.10;97.30;;;;;;5052401;28;20420;-87
2023/05/18 11:02:09;;;;;;;4.22;0.60;;;14.80;97.90;;;;;;5056563;28;20036;-83
2023/05/18 11:04:37;;;;;;;3.70;0.60;;;14.80;98.50;;;;;;5075639;28;20140;-83
2023/05/18 11:07:03;;;;;;;3.45;0.80;;;14.60;98.70;;;;;;5074664;28;20048;-84
2023/05/18 11:09:29;;;;;;;3.72;0.70;;;14.60;97.80;;;;;;5057513;28;20082;-84
2023/05/18 11:11:59;;;;;;;8.20;0.90;;;14.90;99.20;;;;;;5074809;28;20420;-84
2023/05/18 11:14:29;;;;;;;2.38;0.52;;;14.80;99.30;;;;;;5064293;28;20052;-83
2023/05/18 11:17:28;;;;;;;4.53;0.60;;;15.00;99.00;;;;;;5059364;28;20040;-86
2023/05/18 11:20:23;;;;;;;4.05;0.70;;;15.10;99.60;;;;;;4985438;28;20050;-83
2023/05/18 11:22:50;;;;;;;3.80;0.80;;;15.20;99.10;;;;;;4956152;28;20572;-85
2023/05/18 11:25:24;;;;;;;3.80;0.85;;;15.10;97.90;;;;;;4973508;28;20054;-84
2023/05/18 11:27:51;;;;;;;4.32;0.60;;;15.00;97.50;;;;;;4958020;28;20403;-86
2023/05/18 11:30:26;;;;;;;4.60;0.80;;;15.20;99.90;;;;;;4966561;28;20057;-83
2023/05/18 11:32:52;;;;;;;6.77;0.70;;;15.40;98.80;;;;;;4976166;28;20050;-87
2023/05/18 11:35:23;;;;;;;5.30;0.80;;;15.30;98.70;;;;;;4992427;28;20297;-84
2023/05/18 11:37:49;;;;;;;3.47;0.70;;;15.30;98.50;;;;;;4993077;28;20092;-84
2023/05/18 11:40:47;;;;;;;3.95;0.70;;;15.50;98.60;;;;;;4991380;28;20054;-82
2023/05/18 11:43:23;;;;;;;7.70;1.23;;;15.50;98.60;;;;;;4992133;28;20074;-83
2023/05/18 11:45:56;;;;;;;2.75;0.70;;;15.60;99.90;;;;;;4992385;28;20490;-83
2023/05/18 11:48:24;;;;;;;4.20;0.80;;;15.60;99.40;;;;;;4973721;28;20066;-86
2023/05/18 11:50:52;;;;;;;4.50;0.60;;;15.50;99.30;;;;;;4972553;28;20047;-84
2023/05/18 11:53:22;;;;;;;3.28;0.77;;;15.50;98.80;;;;;;4975602;28;20055;-87
2023/05/18 11:55:55;;;;;;;3.33;0.60;;;15.70;99.40;;;;;;5030886;28;20056;-83
2023/05/18 11:58:23;;;;;;;4.55;1.00;;;15.80;99.90;;;;;;5066005;28;20136;-83
2023/05/18 12:00:50;;;;;;;3.83;0.80;;;15.50;98.70;;;;;;5087817;28;20040;-84
2023/05/18 12:03:16;;;;;;;1.52;0.50;;;15.50;98.90;;;;;;5092609;28;20048;-85
2023/05/18 12:05:48;;;;;;;4.03;0.70;;;15.60;99.60;;;;;;5095259;28;20044;-83
2023/05/18 12:08:17;;;;;;;3.40;0.70;;;15.50;98.40;;;;;;5093807;28;20040;-85
2023/05/18 12:10:46;;;;;;;3.38;0.70;;;15.60;98.60;;;;;;5078749;28;20503;-83
2023/05/18 12:13:13;;;;;;;6.85;0.68;;;15.60;99.40;;;;;;5078448;28;20070;-82
2023/05/18 12:15:39;;;;;;;3.50;0.70;;;15.60;98.90;;;;;;5095505;28;20088;-83
2023/05/18 12:18:05;;;;;;;5.47;0.70;;;15.80;99.80;;;;;;5094874;28;20113;-81
2023/05/18 12:20:31;;;;;;;5.45;0.75;;;15.80;98.60;;;;;;5093727;28;20032;-88
2023/05/18 12:22:57;;;;;;;3.20;0.60;;;15.80;98.30;;;;;;5093845;28;20507;-86
2023/05/18 12:25:26;;;;;;;4.28;0.90;;;15.40;98.70;;;;;;5083175;28;20071;-85
2023/05/18 12:27:53;;;;;;;3.38;0.50;;;15.40;99.00;;;;;;5095111;28;20040;-85
2023/05/18 12:30:24;;;;;;;3.53;0.70;;;15.10;97.40;;;;;;5077663;28;20479;-85
2023/05/18 12:32:54;;;;;;;2.75;0.75;;;15.10;99.40;;;;;;5089553;28;20040;-85
2023/05/18 12:35:25;;;;;;;3.85;0.68;;;15.20;99.10;;;;;;5072864;28;20047;-85
2023/05/18 12:37:54;;;;;;;4.03;0.60;;;15.20;98.80;;;;;;5094682;28;20095;-84
2023/05/18 12:40:21;;;;;;;4.65;0.70;;;15.40;99.90;;;;;;5075153;28;20056;-85
2023/05/18 12:43:04;;;;;;;4.93;0.68;;;15.40;99.40;;;;;;5096954;28;20101;-83
2023/05/18 12:45:31;;;;;;;4.75;0.75;;;15.50;99.80;;;;;;5070644;28;20121;-87
2023/05/18 12:48:09;;;;;;;2.55;0.70;;;15.50;98.10;;;;;;5079652;28;20108;-84
2023/05/18 12:50:51;;;;;;;4.72;1.13;;;16.00;99.70;;;;;;5034002;28;20057;-84
2023/05/18 12:53:17;;;;;;;4.60;0.73;;;16.00;99.10;;;;;;5012796;28;20472;-85
2023/05/18 12:55:43;;;;;;;6.93;0.90;;;16.10;99.30;;;;;;5024165;28;20053;-84
2023/05/18 12:58:17;;;;;;;4.47;0.70;;;15.90;97.90;;;;;;5014446;28;20053;-83
2023/05/18 13:00:46;;;;;;;4.30;0.70;;;16.30;98.90;;;;;;5031583;28;20124;-84
2023/05/18 13:03:17;;;;;;;3.53;0.60;;;16.60;99.00;;;;;;5015986;28;20049;-87
2023/05/18 13:05:44;;;;;;;2.67;0.60;;;16.40;98.10;;;;;;5015645;28;20053;-84